createdAt,value
2018-08-12T00:00:18.438Z,1003.24
2018-08-12T00:01:28.532Z,1003.25
2018-08-12T00:02:38.609Z,1003.25
2018-08-12T00:03:48.690Z,1003.26
2018-08-12T00:04:58.787Z,1003.22
2018-08-12T00:06:08.870Z,1003.24
2018-08-12T00:07:18.943Z,1003.26
2018-08-12T00:08:28.771Z,1003.21
2018-08-12T00:09:38.605Z,1003.19
2018-08-12T00:10:48.697Z,1003.21
2018-08-12T00:11:58.791Z,1003.17
2018-08-12T00:13:08.861Z,1003.19
2018-08-12T00:14:18.941Z,1003.14
2018-08-12T00:15:29.018Z,1003.14
2018-08-12T00:16:38.877Z,1003.15
2018-08-12T00:17:48.960Z,1003.13
2018-08-12T00:18:59.041Z,1003.13
2018-08-12T00:20:09.130Z,1003.08
2018-08-12T00:21:18.986Z,1003.09
2018-08-12T00:22:29.122Z,1003.09
2018-08-12T00:23:39.218Z,1003.09
2018-08-12T00:24:49.300Z,1003.08
2018-08-12T00:25:59.130Z,1003.1
2018-08-12T00:27:08.961Z,1003.12
2018-08-12T00:28:19.040Z,1003.11
2018-08-12T00:29:29.148Z,1003.12
2018-08-12T00:30:39.231Z,1003.15
2018-08-12T00:31:49.314Z,1003.12
2018-08-12T00:32:59.378Z,1003.11
2018-08-12T00:34:09.529Z,1003.12
2018-08-12T00:35:19.345Z,1003.13
2018-08-12T00:36:29.447Z,1003.15
2018-08-12T00:37:39.286Z,1003.16
2018-08-12T00:38:49.394Z,1003.16
2018-08-12T00:39:59.466Z,1003.18
2018-08-12T00:41:09.281Z,1003.17
2018-08-12T00:42:19.360Z,1003.17
2018-08-12T00:43:29.445Z,1003.17
2018-08-12T00:44:39.525Z,1003.19
2018-08-12T00:45:49.642Z,1003.19
2018-08-12T00:46:59.758Z,1003.18
2018-08-12T00:48:09.567Z,1003.15
2018-08-12T00:49:19.141Z,1003.13
2018-08-12T00:50:29.226Z,1003.12
2018-08-12T00:51:39.350Z,1003.17
2018-08-12T00:52:49.427Z,1003.15
2018-08-12T00:53:59.503Z,1003.14
2018-08-12T00:55:09.607Z,1003.14
2018-08-12T00:56:19.683Z,1003.16
2018-08-12T00:57:29.756Z,1003.17
2018-08-12T00:58:39.843Z,1003.19
2018-08-12T00:59:49.926Z,1003.18
2018-08-12T01:00:59.749Z,1003.17
2018-08-12T01:02:09.817Z,1003.14
2018-08-12T01:03:19.954Z,1003.17
2018-08-12T01:04:30.036Z,1003.15
2018-08-12T01:05:39.876Z,1003.14
2018-08-12T01:06:49.935Z,1003.11
2018-08-12T01:08:00.010Z,1003.12
2018-08-12T01:09:10.151Z,1003.12
2018-08-12T01:10:20.231Z,1003.15
2018-08-12T01:11:30.295Z,1003.16
2018-08-12T01:12:40.098Z,1003.17
2018-08-12T01:13:50.204Z,1003.15
2018-08-12T01:15:00.276Z,1003.15
2018-08-12T01:16:10.353Z,1003.16
2018-08-12T01:17:20.431Z,1003.13
2018-08-12T01:18:30.497Z,1003.2
2018-08-12T01:19:40.565Z,1003.2
2018-08-12T01:20:50.657Z,1003.2
2018-08-12T01:22:00.734Z,1003.21
2018-08-12T01:23:10.568Z,1003.24
2018-08-12T01:24:20.645Z,1003.23
2018-08-12T01:25:30.735Z,1003.23
2018-08-12T01:26:40.548Z,1003.24
2018-08-12T01:27:50.652Z,1003.23
2018-08-12T01:29:00.735Z,1003.21
2018-08-12T01:30:10.804Z,1003.25
2018-08-12T01:31:20.886Z,1003.22
2018-08-12T01:32:31.031Z,1003.22
2018-08-12T01:33:41.108Z,1003.21
2018-08-12T01:34:51.179Z,1003.18
2018-08-12T01:36:01.385Z,1003.15
2018-08-12T01:37:11.681Z,1003.13
2018-08-12T01:38:21.751Z,1003.15
2018-08-12T01:39:31.838Z,1003.17
2018-08-12T01:40:41.643Z,1003.14
2018-08-12T01:41:51.488Z,1003.14
2018-08-12T01:43:01.569Z,1003.19
2018-08-12T01:44:11.638Z,1003.22
2018-08-12T01:45:21.724Z,1003.21
2018-08-12T01:46:31.533Z,1003.24
2018-08-12T01:47:41.617Z,1003.21
2018-08-12T01:48:51.436Z,1003.23
2018-08-12T01:50:01.519Z,1003.2
2018-08-12T01:51:11.592Z,1003.21
2018-08-12T01:52:21.675Z,1003.22
2018-08-12T01:53:31.753Z,1003.2
2018-08-12T01:54:41.835Z,1003.16
2018-08-12T01:55:51.665Z,1003.11
2018-08-12T01:57:01.746Z,1003.07
2018-08-12T01:58:11.843Z,1003.09
2018-08-12T01:59:21.651Z,1003.15
2018-08-12T02:00:31.748Z,1003.08
2018-08-12T02:01:41.583Z,1003.07
2018-08-12T02:02:51.462Z,1003.05
2018-08-12T02:04:01.552Z,1003.03
2018-08-12T02:05:11.627Z,1003.06
2018-08-12T02:06:21.730Z,1003.08
2018-08-12T02:07:31.291Z,1003.06
2018-08-12T02:08:41.367Z,1003.08
2018-08-12T02:09:51.456Z,1003.08
2018-08-12T02:11:01.536Z,1003.07
2018-08-12T02:12:11.627Z,1003.01
2018-08-12T02:13:21.490Z,1003.07
2018-08-12T02:14:31.583Z,1003.05
2018-08-12T02:15:41.654Z,1003.07
2018-08-12T02:16:51.467Z,1003.13
2018-08-12T02:18:01.550Z,1003.11
2018-08-12T02:19:11.677Z,1003.13
2018-08-12T02:20:21.743Z,1003.09
2018-08-12T02:21:31.813Z,1003.05
2018-08-12T02:22:41.879Z,1003.06
2018-08-12T02:23:51.686Z,1003.08
2018-08-12T02:25:01.831Z,1003.11
2018-08-12T02:26:12.425Z,1003.11
2018-08-12T02:27:22.492Z,1003.13
2018-08-12T02:28:32.611Z,1003.11
2018-08-12T02:29:42.162Z,1003.13
2018-08-12T02:30:52.260Z,1003.13
2018-08-12T02:32:02.149Z,1003.12
2018-08-12T02:33:12.228Z,1003.1
2018-08-12T02:34:22.335Z,1003.09
2018-08-12T02:35:32.409Z,1003.1
2018-08-12T02:36:42.239Z,1003.06
2018-08-12T02:37:52.317Z,1003.07
2018-08-12T02:39:02.145Z,1003.05
2018-08-12T02:40:12.208Z,1003.04
2018-08-12T02:41:22.283Z,1003.08
2018-08-12T02:42:32.350Z,1003
2018-08-12T02:43:42.453Z,1003.02
2018-08-12T02:44:52.533Z,1003.03
2018-08-12T02:46:02.614Z,1003.06
2018-08-12T02:47:12.701Z,1003.06
2018-08-12T02:48:22.273Z,1003.04
2018-08-12T02:49:32.426Z,1003.08
2018-08-12T02:50:42.523Z,1002.99
2018-08-12T02:51:52.607Z,1003
2018-08-12T02:53:02.414Z,1003.01
2018-08-12T02:54:12.491Z,1003
2018-08-12T02:55:22.301Z,1002.98
2018-08-12T02:56:32.404Z,1003.02
2018-08-12T02:57:42.511Z,1003.01
2018-08-12T02:58:52.594Z,1002.97
2018-08-12T03:00:02.669Z,1003.02
2018-08-12T03:01:12.813Z,1002.95
2018-08-12T03:02:22.653Z,1002.96
2018-08-12T03:34:48.942Z,1002.78
2018-08-12T03:35:58.995Z,1002.85
2018-08-12T03:37:08.801Z,1002.85
2018-08-12T03:38:18.612Z,1002.85
2018-08-12T03:39:28.683Z,1002.85
2018-08-12T03:40:38.231Z,1002.84
2018-08-12T03:41:48.339Z,1002.82
2018-08-12T03:42:58.422Z,1002.87
2018-08-12T03:44:08.225Z,1002.84
2018-08-12T03:45:18.286Z,1002.84
2018-08-12T03:46:28.366Z,1002.84
2018-08-12T03:47:38.438Z,1002.84
2018-08-12T03:48:48.509Z,1002.82
2018-08-12T03:49:59.006Z,1002.83
2018-08-12T03:51:09.079Z,1002.82
2018-08-12T03:52:18.948Z,1002.82
2018-08-12T03:53:29.020Z,1002.8
2018-08-12T03:54:39.087Z,1002.77
2018-08-12T03:55:48.892Z,1002.83
2018-08-12T03:56:58.949Z,1002.81
2018-08-12T03:58:08.756Z,1002.85
2018-08-12T03:59:18.562Z,1002.86
2018-08-12T04:00:28.635Z,1002.88
2018-08-12T04:01:38.718Z,1002.89
2018-08-12T04:02:48.274Z,1002.85
2018-08-12T04:03:58.343Z,1002.9
2018-08-12T04:05:08.417Z,1002.9
2018-08-12T04:06:18.496Z,1002.86
2018-08-12T04:07:28.561Z,1002.88
2018-08-12T04:08:38.371Z,1002.93
2018-08-12T04:09:48.431Z,1002.9
2018-08-12T04:10:58.506Z,1002.93
2018-08-12T04:12:08.579Z,1002.92
2018-08-12T04:13:18.372Z,1002.94
2018-08-12T04:14:28.449Z,1002.92
2018-08-12T04:15:38.579Z,1002.94
2018-08-12T04:16:48.633Z,1002.95
2018-08-12T04:17:58.709Z,1002.95
2018-08-12T04:19:08.795Z,1002.96
2018-08-12T04:20:18.913Z,1002.92
2018-08-12T04:21:28.991Z,1002.89
2018-08-12T04:22:39.124Z,1002.91
2018-08-12T04:23:49.193Z,1002.9
2018-08-12T04:24:58.499Z,1002.89
2018-08-12T04:26:08.306Z,1002.93
2018-08-12T04:27:18.439Z,1002.89
2018-08-12T04:28:28.509Z,1002.89
2018-08-12T04:29:38.600Z,1002.95
2018-08-12T04:30:47.881Z,1003.08
2018-08-12T04:31:57.692Z,1003
2018-08-12T04:33:07.301Z,1003.04
2018-08-12T04:34:17.355Z,1003.12
2018-08-12T04:35:27.444Z,1003.07
2018-08-12T04:36:37.259Z,1002.95
2018-08-12T04:37:47.322Z,1002.96
2018-08-12T04:38:57.435Z,1003.01
2018-08-12T04:40:07.518Z,1002.96
2018-08-12T04:41:17.593Z,1002.94
2018-08-12T04:42:27.681Z,1002.9
2018-08-12T04:43:37.484Z,1002.92
2018-08-12T04:44:47.564Z,1002.96
2018-08-12T04:45:57.662Z,1002.92
2018-08-12T04:47:08.257Z,1002.96
2018-08-12T04:48:18.327Z,1002.96
2018-08-12T04:49:28.130Z,1002.98
2018-08-12T04:50:38.205Z,1003
2018-08-12T04:51:48.277Z,1003.02
2018-08-12T04:52:58.101Z,1002.98
2018-08-12T04:54:07.893Z,1003.21
2018-08-12T04:55:17.966Z,1003.33
2018-08-12T04:56:28.131Z,1003.63
2018-08-12T04:57:38.199Z,1004.08
2018-08-12T04:58:48.289Z,1004.12
2018-08-12T04:59:58.107Z,1004
2018-08-12T05:01:07.914Z,1003.91
2018-08-12T05:02:17.727Z,1003.78
2018-08-12T05:03:27.798Z,1003.61
2018-08-12T05:04:37.339Z,1003.77
2018-08-12T05:05:47.410Z,1003.82
2018-08-12T05:06:57.507Z,1003.88
2018-08-12T05:08:07.576Z,1003.8
2018-08-12T05:09:17.392Z,1003.81
2018-08-12T05:10:27.211Z,1003.78
2018-08-12T05:11:37.029Z,1003.74
2018-08-12T05:12:46.845Z,1003.73
2018-08-12T05:13:56.922Z,1003.67
2018-08-12T05:15:06.739Z,1003.71
2018-08-12T05:16:16.557Z,1003.68
2018-08-12T05:17:26.622Z,1003.72
2018-08-12T05:18:36.435Z,1003.67
2018-08-12T05:19:46.530Z,1003.68
2018-08-12T05:20:56.348Z,1003.74
2018-08-12T05:22:06.441Z,1003.78
2018-08-12T05:23:16.529Z,1003.72
2018-08-12T05:24:26.634Z,1003.73
2018-08-12T05:25:36.732Z,1003.7
2018-08-12T05:26:46.808Z,1003.67
2018-08-12T05:27:56.900Z,1003.71
2018-08-12T05:29:06.987Z,1003.74
2018-08-12T05:30:17.064Z,1003.75
2018-08-12T05:31:27.149Z,1003.71
2018-08-12T05:32:37.219Z,1003.71
2018-08-12T05:33:47.291Z,1003.69
2018-08-12T05:34:57.101Z,1003.57
2018-08-12T05:36:06.974Z,1003.7
2018-08-12T05:37:17.623Z,1003.71
2018-08-12T05:38:27.723Z,1003.73
2018-08-12T05:39:37.536Z,1003.67
2018-08-12T05:40:47.357Z,1003.59
2018-08-12T05:41:57.188Z,1003.6
2018-08-12T05:43:07.322Z,1003.66
2018-08-12T05:44:17.147Z,1003.6
2018-08-12T05:45:27.233Z,1003.65
2018-08-12T05:46:37.302Z,1003.66
2018-08-12T05:47:47.380Z,1003.63
2018-08-12T05:48:57.480Z,1003.64
2018-08-12T05:50:07.543Z,1003.68
2018-08-12T05:51:17.644Z,1003.68
2018-08-12T05:52:28.041Z,1003.69
2018-08-12T05:53:38.111Z,1003.67
2018-08-12T05:54:47.971Z,1003.66
2018-08-12T05:55:58.051Z,1003.68
2018-08-12T05:57:08.131Z,1003.68
2018-08-12T05:58:18.658Z,1003.7
2018-08-12T05:59:28.481Z,1003.58
2018-08-12T06:00:38.308Z,1003.35
2018-08-12T06:01:48.120Z,1003.26
2018-08-12T06:02:58.215Z,1003.23
2018-08-12T06:04:08.291Z,1003.25
2018-08-12T06:05:18.382Z,1003.19
2018-08-12T06:06:28.492Z,1003.22
2018-08-12T06:07:38.577Z,1003.24
2018-08-12T06:08:48.411Z,1003.27
2018-08-12T06:09:58.917Z,1003.29
2018-08-12T06:11:09.008Z,1003.27
2018-08-12T06:12:18.563Z,1003.29
2018-08-12T06:13:28.646Z,1003.26
2018-08-12T06:14:38.725Z,1003.23
2018-08-12T06:15:48.269Z,1003.24
2018-08-12T06:16:58.086Z,1003.24
2018-08-12T06:18:07.961Z,1003.26
2018-08-12T06:19:17.518Z,1003.22
2018-08-12T06:20:27.352Z,1003.25
2018-08-12T06:21:37.419Z,1003.24
2018-08-12T06:22:47.499Z,1003.24
2018-08-12T06:23:57.571Z,1003.26
2018-08-12T06:25:07.642Z,1003.21
2018-08-12T06:26:17.725Z,1003.26
2018-08-12T06:27:27.606Z,1003.28
2018-08-12T06:28:37.708Z,1003.23
2018-08-12T06:29:47.840Z,1003.22
2018-08-12T06:30:57.633Z,1003.24
2018-08-12T06:32:07.481Z,1003.22
2018-08-12T06:33:17.329Z,1003.19
2018-08-12T06:34:27.597Z,1003.16
2018-08-12T06:35:37.980Z,1003.16
2018-08-12T06:36:47.812Z,1003.16
2018-08-12T06:37:57.879Z,1003.11
2018-08-12T06:39:07.700Z,1003.12
2018-08-12T06:40:17.797Z,1003.15
2018-08-12T06:41:27.902Z,1003.12
2018-08-12T06:42:37.975Z,1003.11
2018-08-12T06:43:48.075Z,1003.08
2018-08-12T06:44:57.904Z,1003.07
2018-08-12T06:46:07.984Z,1003.06
2018-08-12T06:47:18.229Z,1003.08
2018-08-12T06:48:28.036Z,1003.04
2018-08-12T06:49:37.851Z,1003.04
2018-08-12T06:50:47.943Z,1003.06
2018-08-12T06:51:58.049Z,1003.07
2018-08-12T06:53:08.153Z,1003.04
2018-08-12T06:54:18.254Z,1003.01
2018-08-12T06:55:28.367Z,1003.02
2018-08-12T06:56:38.450Z,1003.01
2018-08-12T06:57:48.303Z,1002.96
2018-08-12T06:58:58.389Z,1002.95
2018-08-12T07:00:08.490Z,1002.92
2018-08-12T07:01:18.579Z,1002.92
2018-08-12T07:02:28.393Z,1002.89
2018-08-12T07:03:38.471Z,1002.89
2018-08-12T07:04:48.318Z,1002.88
2018-08-12T07:05:58.418Z,1002.87
2018-08-12T07:07:08.507Z,1002.87
2018-08-12T07:08:18.581Z,1002.85
2018-08-12T07:09:28.399Z,1002.81
2018-08-12T07:10:38.487Z,1002.81
2018-08-12T07:11:48.315Z,1002.8
2018-08-12T07:12:58.424Z,1002.82
2018-08-12T07:14:08.501Z,1002.8
2018-08-12T07:15:18.698Z,1002.78
2018-08-12T07:16:28.838Z,1002.79
2018-08-12T07:17:38.664Z,1002.77
2018-08-12T07:18:48.749Z,1002.8
2018-08-12T07:19:58.556Z,1002.81
2018-08-12T07:21:08.620Z,1002.84
2018-08-12T07:22:18.453Z,1002.83
2018-08-12T07:23:28.792Z,1002.83
2018-08-12T07:24:38.893Z,1002.83
2018-08-12T07:25:48.873Z,1002.81
2018-08-12T07:26:58.687Z,1002.79
2018-08-12T07:28:08.559Z,1002.8
2018-08-12T07:29:18.397Z,1002.8
2018-08-12T07:30:28.501Z,1002.83
2018-08-12T07:31:38.582Z,1002.8
2018-08-12T07:32:48.712Z,1002.84
2018-08-12T07:33:59.147Z,1002.81
2018-08-12T07:35:09.223Z,1002.77
2018-08-12T07:36:19.335Z,1002.82
2018-08-12T07:37:29.150Z,1002.78
2018-08-12T07:38:39.252Z,1002.81
2018-08-12T07:39:49.912Z,1002.83
2018-08-12T07:40:59.998Z,1002.8
2018-08-12T07:42:10.151Z,1002.83
2018-08-12T07:43:19.977Z,1002.83
2018-08-12T07:44:30.062Z,1002.83
2018-08-12T07:45:39.881Z,1002.83
2018-08-12T07:46:49.953Z,1002.78
2018-08-12T07:48:00.047Z,1002.77
2018-08-12T07:49:09.656Z,1002.79
2018-08-12T07:50:19.731Z,1002.77
2018-08-12T07:51:29.557Z,1002.74
2018-08-12T07:52:39.681Z,1002.76
2018-08-12T07:53:49.755Z,1002.76
2018-08-12T07:54:59.581Z,1002.79
2018-08-12T07:56:09.669Z,1002.76
2018-08-12T07:57:19.757Z,1002.73
2018-08-12T07:58:29.816Z,1002.72
2018-08-12T07:59:39.658Z,1002.69
2018-08-12T08:00:49.733Z,1002.69
2018-08-12T08:01:59.818Z,1002.67
2018-08-12T08:03:09.895Z,1002.6
2018-08-12T08:04:19.983Z,1002.61
2018-08-12T08:05:29.817Z,1002.58
2018-08-12T08:06:39.701Z,1002.6
2018-08-12T08:07:49.541Z,1002.55
2018-08-12T08:08:59.646Z,1002.57
2018-08-12T08:10:09.753Z,1002.59
2018-08-12T08:11:19.870Z,1002.6
2018-08-12T08:12:29.729Z,1002.61
2018-08-12T08:13:40.284Z,1002.58
2018-08-12T08:14:50.384Z,1002.59
2018-08-12T08:16:00.458Z,1002.57
2018-08-12T08:17:10.546Z,1002.57
2018-08-12T08:18:20.626Z,1002.52
2018-08-12T08:19:30.724Z,1002.55
2018-08-12T08:20:40.870Z,1002.55
2018-08-12T08:21:51.002Z,1002.53
2018-08-12T08:23:01.083Z,1002.56
2018-08-12T08:24:10.899Z,1002.54
2018-08-12T08:25:20.794Z,1002.59
2018-08-12T08:26:31.436Z,1002.56
2018-08-12T08:27:41.531Z,1002.51
2018-08-12T08:28:51.380Z,1002.53
2018-08-12T08:30:01.220Z,1002.53
2018-08-12T08:31:11.308Z,1002.52
2018-08-12T08:32:21.717Z,1002.49
2018-08-12T08:33:31.539Z,1002.49
2018-08-12T08:34:41.617Z,1002.47
2018-08-12T08:35:51.684Z,1002.46
2018-08-12T08:37:01.779Z,1002.42
2018-08-12T08:38:11.867Z,1002.37
2018-08-12T08:39:21.975Z,1002.36
2018-08-12T08:40:32.063Z,1002.35
2018-08-12T08:41:42.155Z,1002.26
2018-08-12T08:42:52.237Z,1002.27
2018-08-12T08:44:02.415Z,1002.31
2018-08-12T08:45:12.601Z,1002.31
2018-08-12T08:46:22.707Z,1002.28
2018-08-12T08:47:32.788Z,1002.28
2018-08-12T08:48:42.631Z,1002.29
2018-08-12T08:49:52.736Z,1002.32
2018-08-12T08:51:02.897Z,1002.3
2018-08-12T08:52:12.980Z,1002.28
2018-08-12T08:53:23.063Z,1002.26
2018-08-12T08:54:33.158Z,1002.2
2018-08-12T08:55:43.339Z,1002.23
2018-08-12T08:56:54.194Z,1002.18
2018-08-12T08:58:03.767Z,1002.2
2018-08-12T08:59:13.893Z,1002.21
2018-08-12T09:00:23.967Z,1002.21
2018-08-12T09:01:33.789Z,1002.19
2018-08-12T09:02:43.641Z,1002.21
2018-08-12T09:03:53.504Z,1002.2
2018-08-12T09:05:03.335Z,1002.24
2018-08-12T09:06:13.443Z,1002.25
2018-08-12T09:07:23.551Z,1002.26
2018-08-12T09:08:33.644Z,1002.23
2018-08-12T09:09:45.328Z,1002.24
2018-08-12T09:10:54.877Z,1002.24
2018-08-12T09:12:04.975Z,1002.24
2018-08-12T09:13:14.807Z,1002.22
2018-08-12T09:14:24.952Z,1002.24
2018-08-12T09:15:35.037Z,1002.2
2018-08-12T09:16:44.879Z,1002.19
2018-08-12T09:17:54.956Z,1002.15
2018-08-12T09:19:04.801Z,1002.15
2018-08-12T09:20:14.939Z,1002.13
2018-08-12T09:21:25.045Z,1002.11
2018-08-12T09:22:35.135Z,1002.07
2018-08-12T09:23:45.223Z,1002.11
2018-08-12T09:24:55.414Z,1002.07
2018-08-12T09:26:05.541Z,1002.09
2018-08-12T09:27:15.647Z,1002.12
2018-08-12T09:28:25.722Z,1002.12
2018-08-12T09:29:35.840Z,1002.07
2018-08-12T09:30:45.668Z,1002.07
2018-08-12T09:31:55.769Z,1002.07
2018-08-12T09:33:05.848Z,1002.05
2018-08-12T09:34:15.929Z,1002.08
2018-08-12T09:35:26.011Z,1002.07
2018-08-12T09:36:35.837Z,1002.04
2018-08-12T09:37:45.940Z,1002.03
2018-08-12T09:38:56.044Z,1002.08
2018-08-12T09:40:06.149Z,1002.08
2018-08-12T09:41:16.246Z,1002.02
2018-08-12T09:42:26.360Z,1002.05
2018-08-12T09:43:36.470Z,1002.03
2018-08-12T09:44:46.559Z,1002.03
2018-08-12T09:45:56.403Z,1002.03
2018-08-12T09:47:06.488Z,1001.95
2018-08-12T09:48:16.304Z,1001.97
2018-08-12T09:49:26.135Z,1001.91
2018-08-12T09:50:36.233Z,1001.91
2018-08-12T09:51:45.974Z,1001.91
2018-08-12T09:52:56.596Z,1001.93
2018-08-12T09:54:06.414Z,1001.94
2018-08-12T09:55:16.076Z,1001.9
2018-08-12T09:56:25.900Z,1001.89
2018-08-12T09:57:35.979Z,1001.86
2018-08-12T09:58:46.056Z,1001.85
2018-08-12T09:59:56.184Z,1001.87
2018-08-12T10:01:06.034Z,1001.82
2018-08-12T10:02:15.633Z,1001.82
2018-08-12T10:03:25.698Z,1001.81
2018-08-12T10:04:35.517Z,1001.81
2018-08-12T10:05:45.612Z,1001.79
2018-08-12T10:06:55.711Z,1001.73
2018-08-12T10:08:05.831Z,1001.73
2018-08-12T10:09:15.955Z,1001.69
2018-08-12T10:10:25.795Z,1001.67
2018-08-12T10:11:35.864Z,1001.6
2018-08-12T10:12:45.946Z,1001.6
2018-08-12T10:13:55.768Z,1001.61
2018-08-12T10:15:05.839Z,1001.6
2018-08-12T10:16:15.906Z,1001.57
2018-08-12T10:17:25.456Z,1001.55
2018-08-12T10:18:35.379Z,1001.55
2018-08-12T10:19:45.457Z,1001.52
2018-08-12T10:20:55.032Z,1001.55
2018-08-12T10:22:04.859Z,1001.53
2018-08-12T10:23:14.682Z,1001.5
2018-08-12T10:24:24.782Z,1001.5
2018-08-12T10:25:34.593Z,1001.47
2018-08-12T10:26:44.436Z,1001.48
2018-08-12T10:27:54.762Z,1001.46
2018-08-12T10:29:04.887Z,1001.46
2018-08-12T10:30:15.209Z,1001.46
2018-08-12T10:31:25.308Z,1001.45
2018-08-12T10:32:35.402Z,1001.49
2018-08-12T10:33:45.498Z,1001.42
2018-08-12T10:34:55.592Z,1001.41
2018-08-12T10:36:05.416Z,1001.35
2018-08-12T10:37:15.502Z,1001.35
2018-08-12T10:38:25.645Z,1001.37
2018-08-12T10:39:35.201Z,1001.41
2018-08-12T10:40:45.286Z,1001.35
2018-08-12T10:41:55.426Z,1001.34
2018-08-12T10:43:05.502Z,1001.33
2018-08-12T10:44:15.661Z,1001.32
2018-08-12T10:45:26.231Z,1001.28
2018-08-12T10:46:36.337Z,1001.29
2018-08-12T10:47:46.446Z,1001.29
2018-08-12T10:48:56.530Z,1001.28
2018-08-12T10:50:06.367Z,1001.25
2018-08-12T10:51:16.461Z,1001.23
2018-08-12T10:52:26.545Z,1001.24
2018-08-12T10:53:36.692Z,1001.26
2018-08-12T10:54:46.518Z,1001.29
2018-08-12T10:55:56.605Z,1001.24
2018-08-12T10:57:06.682Z,1001.17
2018-08-12T10:58:16.779Z,1001.17
2018-08-12T10:59:26.948Z,1001.17
2018-08-12T11:00:37.351Z,1001.18
2018-08-12T11:01:47.443Z,1001.2
2018-08-12T11:02:57.546Z,1001.14
2018-08-12T11:04:07.377Z,1001.1
2018-08-12T11:05:17.464Z,1001.11
2018-08-12T11:06:27.535Z,1001.11
2018-08-12T11:07:37.618Z,1001.07
2018-08-12T11:08:47.430Z,1001.08
2018-08-12T11:09:57.521Z,1001.05
2018-08-12T11:11:07.620Z,1001.04
2018-08-12T11:12:17.715Z,1001.03
2018-08-12T11:13:28.200Z,1001.07
2018-08-12T11:14:38.028Z,1001.04
2018-08-12T11:15:48.097Z,1001.02
2018-08-12T11:16:58.166Z,1001.02
2018-08-12T11:18:07.980Z,1000.98
2018-08-12T11:19:17.840Z,1000.99
2018-08-12T11:20:28.038Z,1000.96
2018-08-12T11:21:38.632Z,1000.96
2018-08-12T11:22:48.475Z,1000.97
2018-08-12T11:23:58.583Z,1000.94
2018-08-12T11:25:08.681Z,1000.92
2018-08-12T11:26:18.510Z,1000.89
2018-08-12T11:27:28.582Z,1000.9
2018-08-12T11:28:38.507Z,1000.83
2018-08-12T11:29:48.959Z,1000.86
2018-08-12T11:30:59.039Z,1000.89
2018-08-12T11:32:09.155Z,1000.83
2018-08-12T11:33:19.008Z,1000.72
2018-08-12T11:34:29.086Z,1000.77
2018-08-12T11:35:39.283Z,1000.8
2018-08-12T11:36:49.174Z,1000.71
2018-08-12T11:37:59.008Z,1000.68
2018-08-12T11:39:08.830Z,1000.7
2018-08-12T11:40:18.656Z,1000.68
2018-08-12T11:41:28.498Z,1000.65
2018-08-12T11:42:38.586Z,1000.6
2018-08-12T11:43:48.681Z,1000.55
2018-08-12T11:44:58.769Z,1000.52
2018-08-12T11:46:08.576Z,1000.53
2018-08-12T11:47:18.503Z,1000.55
2018-08-12T11:48:28.455Z,1000.59
2018-08-12T11:49:38.576Z,1000.56
2018-08-12T11:50:48.422Z,1000.54
2018-08-12T11:51:58.526Z,1000.49
2018-08-12T11:53:08.627Z,1000.51
2018-08-12T11:54:18.735Z,1000.54
2018-08-12T11:55:28.819Z,1000.55
2018-08-12T11:56:38.683Z,1000.52
2018-08-12T11:57:48.772Z,1000.49
2018-08-12T11:58:58.344Z,1000.47
2018-08-12T12:00:08.191Z,1000.48
2018-08-12T12:01:18.024Z,1000.44
2018-08-12T12:02:28.117Z,1000.43
2018-08-12T12:03:37.962Z,1000.34
2018-08-12T12:04:48.077Z,1000.38
2018-08-12T12:05:57.904Z,1000.34
2018-08-12T12:07:07.707Z,1000.31
2018-08-12T12:08:17.521Z,1000.28
2018-08-12T12:09:27.354Z,1000.21
2018-08-12T12:10:37.442Z,1000.24
2018-08-12T12:11:47.522Z,1000.18
2018-08-12T12:12:57.349Z,1000.17
2018-08-12T12:14:07.433Z,1000.18
2018-08-12T12:15:16.987Z,1000.17
2018-08-12T12:16:27.191Z,1000.13
2018-08-12T12:17:37.296Z,1000.16
2018-08-12T12:18:47.391Z,1000.1
2018-08-12T12:19:57.490Z,1000.05
2018-08-12T12:21:07.323Z,1000.08
2018-08-12T12:22:17.487Z,1000.06
2018-08-12T12:23:27.587Z,1000.02
2018-08-12T12:24:37.694Z,999.9
2018-08-12T12:25:47.767Z,999.97
2018-08-12T12:26:58.009Z,999.98
2018-08-12T12:28:08.136Z,999.92
2018-08-12T12:29:18.228Z,999.98
2018-08-12T12:30:28.076Z,999.97
2018-08-12T12:31:38.172Z,999.89
2018-08-12T12:32:47.991Z,999.89
2018-08-12T12:33:57.831Z,999.84
2018-08-12T12:35:07.392Z,999.86
2018-08-12T12:36:17.484Z,999.83
2018-08-12T12:37:27.574Z,999.85
2018-08-12T12:38:37.672Z,999.77
2018-08-12T12:39:47.555Z,999.75
2018-08-12T12:40:57.396Z,999.77
2018-08-12T12:42:07.490Z,999.76
2018-08-12T12:43:17.590Z,999.76
2018-08-12T12:44:27.672Z,999.8
2018-08-12T12:45:37.769Z,999.78
2018-08-12T12:46:47.874Z,999.68
2018-08-12T12:47:57.973Z,999.67
2018-08-12T12:49:08.043Z,999.64
2018-08-12T12:50:18.013Z,999.63
2018-08-12T12:51:28.777Z,999.56
2018-08-12T12:52:38.865Z,999.63
2018-08-12T12:53:48.701Z,999.62
2018-08-12T12:54:58.809Z,999.63
2018-08-12T12:56:08.913Z,999.57
2018-08-12T12:57:19.265Z,999.49
2018-08-12T12:58:29.346Z,999.49
2018-08-12T12:59:39.435Z,999.44
2018-08-12T13:00:49.268Z,999.49
2018-08-12T13:01:59.346Z,999.52
2018-08-12T13:03:09.429Z,999.42
2018-08-12T13:04:18.982Z,999.38
2018-08-12T13:05:28.806Z,999.39
2018-08-12T13:06:38.892Z,999.34
2018-08-12T13:07:49.046Z,999.35
2018-08-12T13:08:59.214Z,999.34
2018-08-12T13:10:09.307Z,999.32
2018-08-12T13:11:19.124Z,999.31
2018-08-12T13:12:29.284Z,999.29
2018-08-12T13:13:39.908Z,999.26
2018-08-12T13:14:50.056Z,999.32
2018-08-12T13:16:00.172Z,999.24
2018-08-12T13:17:10.263Z,999.24
2018-08-12T13:18:20.376Z,999.19
2018-08-12T13:19:30.490Z,999.15
2018-08-12T13:20:40.655Z,999.12
2018-08-12T13:21:50.744Z,999.12
2018-08-12T13:23:00.845Z,999.08
2018-08-12T13:24:10.980Z,999.07
2018-08-12T13:25:21.071Z,999.04
2018-08-12T13:26:31.219Z,999.04
2018-08-12T13:27:41.319Z,999.08
2018-08-12T13:28:51.413Z,999.04
2018-08-12T13:30:01.488Z,999.01
2018-08-12T13:31:11.328Z,999.08
2018-08-12T13:32:21.418Z,998.95
2018-08-12T13:33:31.494Z,998.93
2018-08-12T13:34:41.596Z,998.91
2018-08-12T13:35:51.435Z,998.89
2018-08-12T13:37:01.522Z,998.91
2018-08-12T13:38:11.666Z,998.88
2018-08-12T13:39:21.798Z,998.84
2018-08-12T13:40:31.646Z,998.79
2018-08-12T13:41:41.499Z,998.84
2018-08-12T13:42:51.599Z,998.81
2018-08-12T13:44:01.426Z,998.81
2018-08-12T13:45:11.545Z,998.73
2018-08-12T13:46:21.678Z,998.71
2018-08-12T13:47:31.780Z,998.65
2018-08-12T13:48:41.606Z,998.64
2018-08-12T13:49:51.758Z,998.71
2018-08-12T13:51:01.303Z,998.7
2018-08-12T13:52:11.474Z,998.61
2018-08-12T13:53:21.318Z,998.62
2018-08-12T13:54:31.418Z,998.53
2018-08-12T13:55:41.519Z,998.58
2018-08-12T13:56:51.603Z,998.54
2018-08-12T13:58:01.422Z,998.45
2018-08-12T13:59:11.250Z,998.44
2018-08-12T14:00:21.349Z,998.36
2018-08-12T14:01:31.225Z,998.38
2018-08-12T14:02:41.521Z,998.35
2018-08-12T14:03:51.642Z,998.31
2018-08-12T14:05:01.730Z,998.27
2018-08-12T14:06:11.845Z,998.23
2018-08-12T14:07:21.693Z,998.3
2018-08-12T14:08:31.780Z,998.21
2018-08-12T14:09:41.890Z,998.19
2018-08-12T14:10:52.000Z,998.18
2018-08-12T14:12:02.145Z,998.19
2018-08-12T14:13:11.971Z,998.2
2018-08-12T14:14:22.075Z,998.16
2018-08-12T14:15:32.186Z,998.16
2018-08-12T14:16:42.019Z,998.14
2018-08-12T14:17:51.847Z,998.17
2018-08-12T14:19:01.951Z,998.13
2018-08-12T14:20:12.055Z,998.09
2018-08-12T14:21:22.230Z,998.07
2018-08-12T14:22:32.722Z,998.04
2018-08-12T14:23:42.822Z,998.05
2018-08-12T14:24:52.680Z,997.99
2018-08-12T14:26:02.521Z,997.96
2018-08-12T14:27:12.634Z,997.96
2018-08-12T14:28:22.452Z,997.93
2018-08-12T14:29:32.015Z,997.91
2018-08-12T14:30:42.109Z,997.87
2018-08-12T14:31:52.196Z,997.91
2018-08-12T14:33:02.348Z,997.9
2018-08-12T14:34:12.449Z,997.84
2018-08-12T14:35:22.773Z,997.75
2018-08-12T14:36:32.597Z,997.74
2018-08-12T14:37:42.690Z,997.73
2018-08-12T14:38:52.779Z,997.71
2018-08-12T14:40:02.888Z,997.73
2018-08-12T14:41:12.721Z,997.73
2018-08-12T14:42:22.804Z,997.68
2018-08-12T14:43:32.978Z,997.72
2018-08-12T14:44:43.688Z,997.72